Active Pass Lighthouse Heliport

CA-0636 · Brits-Columbia, Canada

METAR historie CA-0636 · Active Pass Lighthouse Heliport

Hieronder zie je METAR's van de afgelopen dagen. Kies een jaar om door oudere METAR's te bladeren, vanaf het jaar 2007.

27 mei 2024

Tijd Code Weer Temp. Zicht Plafond Wind METAR/SPECI
10:00
V
12 °C 20 mi 6.000 ft 130° 130° 8 kt METAR CYYJ 271700Z 13008KT 20SM FEW028 OVC060 12/12 A3014 RMK SC2SC6 SLP208
09:00
V
11 °C 20 mi 6.300 ft 130° 130° 7 kt METAR CYYJ 271600Z 13007KT 20SM SCT038 OVC063 11/11 A3013 RMK SC3SC5 SLP205
08:00
V
11 °C 20 mi 6.400 ft 150° 150° 7 kt METAR CYYJ 271500Z 15007KT 20SM FEW033 BKN064 11/11 A3011 RMK SC1SC6 SLP200
07:00
V
10 °C 30 mi 7.200 ft 140° 140° 5 kt METAR CYYJ 271400Z 14005KT 30SM FEW050 BKN072 BKN160 10/10 A3011 RMK SC1AC4AC2 SLP198
06:00
V
9 °C 30 mi 7.400 ft 140° 140° 4 kt METAR CYYJ 271300Z 14004KT 30SM FEW058 BKN074 BKN170 09/09 A3011 RMK SC1AC5AC1 SLP198
05:00
V
9 °C 15 mi 5.900 ft 070° 070° 4 kt METAR CYYJ 271200Z 07004KT 15SM BKN059 BKN180 09/09 A3010 RMK SC5AC2 SLP195
04:00
V
9 °C 8 mi 7.700 ft Var Var 2 kt METAR CYYJ 271100Z VRB02KT 8SM FEW003 BKN077 09/09 A3010 RMK SF1AC5 SF TR SLP194
03:52
V
9 °C 5 mi 7.700 ft 360° 360° 0 kt METAR CYYJ 271052Z 00000KT 5SM BR FEW003 BKN077 09/09 A3010 RMK SF2AC4 SLP194
03:34
L
9 °C 3 mi 300 ft Var Var 2 kt METAR CYYJ 271034Z VRB02KT 3SM BR BKN003 OVC075 09/09 A3009 RMK ST5AC2 SLP193
03:16
V
9 °C 5 mi - Var Var 2 kt METAR CYYJ 271016Z VRB02KT 5SM BR FEW003 SCT200 09/09 A3010 RMK SF2CI2 VIS E 1 FG SLP194
03:00
V
9 °C 8 mi - 100° 100° 5 kt METAR CYYJ 271000Z 10005KT 8SM VCFG FEW003 FEW060 SCT210 09/09 A3010 RMK SF1SC1CI3 SF TR VIS E 1 FG SLP194
02:00
V
10 °C 30 mi 5.600 ft 130° 130° 9 kt METAR CYYJ 270900Z 13009KT 30SM FEW003 BKN056 10/10 A3010 RMK SF1SC5 SLP196
01:00
V
11 °C 30 mi 4.700 ft 120° 120° 2 kt METAR CYYJ 270800Z 12002KT 30SM BKN047 11/11 A3010 RMK SC7 SLP195
00:00
V
11 °C 30 mi 5.400 ft 100° 100° 4 kt METAR CYYJ 270700Z 10004KT 30SM BKN054 11/11 A3010 RMK SC7 SLP197

26 mei 2024

Tijd Code Weer Temp. Zicht Plafond Wind METAR/SPECI
23:00
V
11 °C 30 mi 5.200 ft 100° 100° 3 kt METAR CYYJ 270600Z 10003KT 30SM BKN052 11/11 A3010 RMK SC7 SLP197
22:00
V
11 °C 30 mi 5.400 ft 110° 110° 4 kt METAR CYYJ 270500Z 11004KT 30SM FEW028 BKN054 11/11 A3011 RMK SC1SC6 SLP199
21:00
V
12 °C 30 mi 5.400 ft 140° 140° 5 kt METAR CYYJ 270400Z 14005KT 30SM FEW028 BKN054 12/11 A3010 RMK SC2SC5 SLP196
20:00
V
13 °C 30 mi 5.800 ft 140° 140° 7 kt METAR CYYJ 270300Z 14007KT 30SM SCT025 BKN058 13/12 A3010 RMK SC3SC4 SLP196
19:00
V
13 °C 30 mi 5.800 ft 140° 140° 8 kt METAR CYYJ 270200Z 14008KT 30SM FEW018 SCT032 BKN058 13/12 A3010 RMK SC1SC2SC4 SLP196
18:00
V
13 °C 30 mi 3.600 ft 140° 140° 9 - 16 kt METAR CYYJ 270100Z 14009G16KT 30SM FEW017 BKN036 BKN062 13/12 A3010 RMK SC1SC4SC2 SLP197
17:00
V
13 °C 30 mi 6.400 ft 140° 140° 8 - 15 kt METAR CYYJ 270000Z 14008G15KT 30SM FEW019 SCT032 OVC064 13/12 A3010 RMK SC1SC3SC4 SLP197
16:00
V
13 °C 20 mi 5.200 ft 140° 140° 11 - 17 kt METAR CYYJ 262300Z 14011G17KT 20SM FEW018 SCT029 BKN052 13/12 A3010 RMK SC1SC2SC4 SLP196
15:00
V
13 °C 20 mi 4.800 ft 140° 140° 11 - 16 kt METAR CYYJ 262200Z 14011G16KT 20SM FEW016 SCT032 BKN048 13/13 A3010 RMK SC1SC3SC3 SLP195
14:00
V
12 °C 20 mi 3.600 ft 140° 140° 11 kt METAR CYYJ 262100Z 14011KT 20SM FEW017 BKN036 OVC055 12/12 A3010 RMK SC2SC5SC1 SLP195
13:00
V
12 °C 20 mi 3.800 ft 140° 140° 12 kt METAR CYYJ 262000Z 14012KT 20SM FEW016 FEW025 BKN038 OVC054 12/12 A3009 RMK SC1SC1SC5SC1 SLP193
12:00
V
12 °C 20 mi 4.400 ft 140° 140° 11 - 16 kt METAR CYYJ 261900Z 14011G16KT 20SM FEW017 BKN044 OVC067 12/12 A3008 RMK SC2SC4AC2 SLP189
11:00
V
11 °C 20 mi 4.000 ft 140° 140° 11 kt METAR CYYJ 261800Z 14011KT 20SM FEW013 SCT022 BKN040 OVC058 11/11 A3007 RMK SC2SC1SC3SC2 SLP186
10:00
V
10 °C 15 mi 4.000 ft 140° 140° 9 kt METAR CYYJ 261700Z 14009KT 15SM FEW013 SCT020 OVC040 10/10 A3007 RMK SC2SC1SC5 SLP185
09:00
M
10 °C 12 mi 2.900 ft 140° 140° 11 kt METAR CYYJ 261600Z 14011KT 12SM FEW011 SCT018 BKN029 OVC042 10/10 A3006 RMK SC2SC1SC2SC3 SLP182
08:00
M
10 °C 12 mi 1.900 ft 140° 140° 10 - 16 kt METAR CYYJ 261500Z 14010G16KT 12SM SCT011 BKN019 OVC036 10/10 A3005 RMK SC3SC3SC2 SLP179
07:00
V
9 °C 8 mi 3.100 ft 140° 140° 8 kt METAR CYYJ 261400Z 14008KT 8SM -RA SCT012 BKN031 OVC060 09/09 A3005 RMK SC3SC3SC2 SLP177
06:00
M
9 °C 8 mi 3.000 ft 150° 150° 6 kt METAR CYYJ 261300Z 15006KT 8SM -RA OVC030 09/09 A3005 RMK SC8 SLP180
05:00
M
9 °C 8 mi 2.600 ft 150° 150° 9 kt METAR CYYJ 261200Z 15009KT 8SM -RA OVC026 09/09 A3005 RMK SC8 SLP180
04:00
V
9 °C 15 mi 3.100 ft 150° 150° 4 kt METAR CYYJ 261100Z 15004KT 15SM OVC031 09/09 A3005 RMK SC8 SLP176
03:00
V
10 °C 15 mi 4.100 ft 210° 210° 7 kt METAR CYYJ 261000Z 21007KT 15SM -RA OVC041 10/08 A3003 RMK SC8 SLP172
02:00
V
10 °C 20 mi 6.300 ft 160° 160° 5 kt METAR CYYJ 260900Z 16005KT 20SM BKN063 OVC090 10/08 A3002 RMK SC6AC2 SLP169
01:00
V
10 °C 20 mi 6.000 ft 180° 180° 8 kt METAR CYYJ 260800Z 18008KT 20SM FEW030 BKN060 OVC120 10/07 A3002 RMK SC1SC6AC1 SLP167
00:00
V
10 °C 20 mi 12.000 ft 220° 220° 6 kt METAR CYYJ 260700Z 22006KT 20SM FEW030 SCT070 BKN120 10/05 A3002 RMK SC1AC5AC1 SLP168

25 mei 2024

Tijd Code Weer Temp. Zicht Plafond Wind METAR/SPECI
23:00
V
10 °C 20 mi 7.500 ft 240° 240° 9 kt METAR CYYJ 260600Z 24009KT 20SM BKN075 BKN120 10/05 A3002 RMK AC6AC1 SLP166
22:00
V
10 °C 20 mi 12.000 ft 240° 240° 7 kt METAR CYYJ 260500Z 24007KT 20SM FEW079 BKN120 10/05 A3002 RMK AC2AC5 SLP166
21:00
V
11 °C 20 mi 9.000 ft 250° 250° 10 - 17 kt METAR CYYJ 260400Z 25010G17KT 20SM FEW030 BKN090 BKN150 11/04 A3000 RMK SC1AC5AC2 SC TR SLP162
20:00
V
11 °C 20 mi 12.000 ft 260° 260° 14 kt METAR CYYJ 260300Z 26014KT 20SM FEW030 BKN120 11/05 A2999 RMK SC1AC6 SLP158
19:00
V
12 °C 30 mi 12.000 ft 250° 250° 13 - 19 kt METAR CYYJ 260200Z 25013G19KT 30SM FEW018 BKN120 BKN250 12/05 A2999 RMK SC1AC5CI1 SC TR SLP158
18:00
V
14 °C 30 mi 15.000 ft 240° 240° 13 - 19 kt METAR CYYJ 260100Z 24013G19KT 30SM FEW025 SCT110 BKN150 BKN220 14/04 A2999 RMK SC1AC3AC2CC1 SC TR CC TR SLP156
17:00
V
13 °C 30 mi 12.000 ft 230° 230° 13 - 20 kt METAR CYYJ 260000Z 23013G20KT 30SM FEW030 BKN120 BKN250 13/04 A2997 RMK SC1AC5CI1 SC TR SLP150
16:00
V
15 °C 30 mi 12.000 ft 240° 240° 14 - 20 kt METAR CYYJ 252300Z 24014G20KT 30SM FEW030 FEW058 BKN120 15/04 A2996 RMK SC1SC1AC6 SC TR SC TR SLP148
15:00
V
14 °C 30 mi 12.000 ft 250° 250° 11 - 20 kt METAR CYYJ 252200Z 25011G20KT 30SM FEW028 FEW055 BKN120 BKN200 14/04 A2995 RMK SC1SC1AC4CC1 CC TR SLP143
14:00
V
13 °C 30 mi 5.300 ft 240° 240° 14 - 20 kt METAR CYYJ 252100Z 24014G20KT 30SM FEW035 BKN053 BKN130 BKN220 13/06 A2994 RMK SC2SC3AC1CC1 CC TR SLP139
13:00
V
15 °C 30 mi 12.000 ft 220° 220° 12 - 20 kt METAR CYYJ 252000Z 22012G20KT 30SM FEW020 SCT055 BKN120 BKN210 15/06 A2992 RMK SC1SC3AC2CI1 SC TR SLP134
12:00
V
14 °C 30 mi 5.300 ft 220° 220° 11 - 17 kt METAR CYYJ 251900Z 22011G17KT 30SM FEW028 BKN053 14/06 A2990 RMK SC2SC5 SLP128
11:00
V
12 °C 30 mi 4.700 ft 230° 230° 13 - 19 kt METAR CYYJ 251800Z 23013G19KT 30SM FEW030 BKN047 12/05 A2989 RMK SC1SC6 SLP124
10:00
V
12 °C 30 mi 4.300 ft 220° 220° 8 - 16 kt METAR CYYJ 251700Z 22008G16KT 30SM FEW025 BKN043 BKN075 12/06 A2988 RMK SC1SC5AC1 SLP120
09:00
V
11 °C 30 mi 7.500 ft 220° 220° 10 kt METAR CYYJ 251600Z 22010KT 30SM FEW030 BKN075 BKN250 11/06 A2985 RMK SC2AC3CI2 SLP111
08:00
V
10 °C 30 mi 5.000 ft 240° 240° 11 kt METAR CYYJ 251500Z 24011KT 30SM SCT032 BKN050 BKN067 10/07 A2984 RMK SC3SC2AC2 SLP105
07:00
V
10 °C 30 mi 5.500 ft 320° 320° 3 kt METAR CYYJ 251400Z 32003KT 260V330 30SM FEW028 BKN055 BKN072 10/10 A2981 RMK SC2SC5AC1 AC TR SLP098
06:00
V
10 °C 30 mi 5.000 ft 090° 090° 2 kt METAR CYYJ 251300Z 09002KT 30SM FEW005 FEW029 BKN050 BKN071 10/10 A2980 RMK SF1SC2SC5AC1 SF TR AC TR SLP094
05:00
M
10 °C 20 mi 3.000 ft 120° 120° 4 kt METAR CYYJ 251200Z 12004KT 20SM FEW004 BKN030 OVC045 10/10 A2980 RMK SF1SC6SC2 SF TR VIS N 5 SLP094
04:00
M
10 °C 15 mi 2.800 ft 120° 120° 3 kt METAR CYYJ 251100Z 12003KT 15SM FEW009 FEW016 BKN028 OVC044 10/10 A2980 RMK SF1SC2SC5SC1 SF TR SLP094
03:39
M
10 °C 12 mi 1.500 ft 120° 120° 3 kt METAR CYYJ 251039Z 12003KT 12SM -RA FEW009 BKN015 BKN027 OVC041 10/10 A2980 RMK SF1SC4SC2SC1 SLP094
03:19
M
10 °C 12 mi 1.200 ft Var Var 2 kt METAR CYYJ 251019Z VRB02KT 12SM -DZ FEW008 BKN012 BKN021 OVC035 10/10 A2981 RMK SF1ST6SC1SC1 SF TR SLP095
03:00
M
10 °C 15 mi 1.300 ft Var Var 2 kt METAR CYYJ 251000Z VRB02KT 15SM -DZ BKN013 BKN026 BKN041 OVC066 10/10 A2980 RMK ST5SC1SC1AC1 SLP094
02:53
M
10 °C 20 mi 1.400 ft Var Var 2 kt METAR CYYJ 250953Z VRB02KT 20SM -DZ BKN014 BKN027 BKN043 OVC067 10/10 A2980 RMK ST5SC1SC1AC1 SLP094
02:15
V
9 °C 20 mi 4.700 ft 360° 360° 0 kt METAR CYYJ 250915Z 00000KT 20SM -RA FEW013 SCT028 BKN047 OVC068 09/09 A2980 RMK SC2SC2SC3AC1 SLP094
02:00
V
8 °C 20 mi 4.400 ft 170° 170° 2 kt METAR CYYJ 250900Z 17002KT 20SM FEW015 FEW026 BKN044 BKN068 BKN110 08/08 A2980 RMK SC1SC2SC4AC1AC1 SC TR AC TR SLP093
01:00
V
7 °C 20 mi 4.000 ft 240° 240° 3 kt METAR CYYJ 250800Z 24003KT 20SM BKN040 BKN066 BKN120 07/07 A2979 RMK SC5AC2AC1 AC TR SLP091
00:00
V
8 °C 20 mi - 360° 360° 0 kt METAR CYYJ 250700Z 00000KT 20SM FEW045 FEW070 SCT110 08/08 A2979 RMK SC1AC1AC1 SLP090

24 mei 2024

Tijd Code Weer Temp. Zicht Plafond Wind METAR/SPECI
23:00
V
9 °C 20 mi - 360° 360° 0 kt METAR CYYJ 250600Z 00000KT 20SM FEW050 FEW068 SCT120 09/09 A2979 RMK SC1AC1AC1 SLP090
Wijziging doorgeven